sensor_id;sensor_type;location;lat;lon;timestamp;temperature;humidity
39675;DHT22;27790;50.840;4.386;2022-08-19T00:01:47;22.10;86.60
39675;DHT22;27790;50.840;4.386;2022-08-19T00:04:15;22.10;87.10
39675;DHT22;27790;50.840;4.386;2022-08-19T00:06:44;22.00;87.10
39675;DHT22;27790;50.840;4.386;2022-08-19T00:09:13;22.00;87.30
39675;DHT22;27790;50.840;4.386;2022-08-19T00:11:40;22.00;87.50
39675;DHT22;27790;50.840;4.386;2022-08-19T00:14:07;22.00;87.90
39675;DHT22;27790;50.840;4.386;2022-08-19T00:16:35;22.00;88.60
39675;DHT22;27790;50.840;4.386;2022-08-19T00:19:02;22.00;88.90
39675;DHT22;27790;50.840;4.386;2022-08-19T00:21:28;22.10;89.40
39675;DHT22;27790;50.840;4.386;2022-08-19T00:23:55;22.10;89.40
39675;DHT22;27790;50.840;4.386;2022-08-19T00:26:26;22.20;89.50
39675;DHT22;27790;50.840;4.386;2022-08-19T00:28:52;22.20;89.80
39675;DHT22;27790;50.840;4.386;2022-08-19T00:31:17;22.20;89.90
39675;DHT22;27790;50.840;4.386;2022-08-19T00:33:43;22.20;90.20
39675;DHT22;27790;50.840;4.386;2022-08-19T00:36:10;22.20;90.00
39675;DHT22;27790;50.840;4.386;2022-08-19T00:38:37;22.20;90.10
39675;DHT22;27790;50.840;4.386;2022-08-19T00:41:06;22.20;90.30
39675;DHT22;27790;50.840;4.386;2022-08-19T00:43:32;22.20;90.40
39675;DHT22;27790;50.840;4.386;2022-08-19T00:45:57;22.10;90.40
39675;DHT22;27790;50.840;4.386;2022-08-19T00:48:23;22.10;90.60
39675;DHT22;27790;50.840;4.386;2022-08-19T00:50:50;22.10;90.90
39675;DHT22;27790;50.840;4.386;2022-08-19T00:53:20;22.00;91.00
39675;DHT22;27790;50.840;4.386;2022-08-19T00:55:48;22.00;91.00
39675;DHT22;27790;50.840;4.386;2022-08-19T00:58:16;22.00;91.00
39675;DHT22;27790;50.840;4.386;2022-08-19T01:00:43;22.00;91.00
39675;DHT22;27790;50.840;4.386;2022-08-19T01:03:15;22.00;91.30
39675;DHT22;27790;50.840;4.386;2022-08-19T01:05:42;21.90;91.20
39675;DHT22;27790;50.840;4.386;2022-08-19T01:08:09;21.80;91.50
39675;DHT22;27790;50.840;4.386;2022-08-19T01:10:52;21.70;91.50
39675;DHT22;27790;50.840;4.386;2022-08-19T01:13:21;21.70;91.50
39675;DHT22;27790;50.840;4.386;2022-08-19T01:15:57;21.60;91.70
39675;DHT22;27790;50.840;4.386;2022-08-19T01:18:26;21.50;91.80
39675;DHT22;27790;50.840;4.386;2022-08-19T01:20:55;21.40;91.80
39675;DHT22;27790;50.840;4.386;2022-08-19T01:23:21;21.40;91.80
39675;DHT22;27790;50.840;4.386;2022-08-19T01:25:49;21.30;91.90
39675;DHT22;27790;50.840;4.386;2022-08-19T01:28:22;21.30;92.20
39675;DHT22;27790;50.840;4.386;2022-08-19T01:30:47;21.20;92.10
39675;DHT22;27790;50.840;4.386;2022-08-19T01:33:14;21.20;92.20
39675;DHT22;27790;50.840;4.386;2022-08-19T01:35:40;21.20;92.00
39675;DHT22;27790;50.840;4.386;2022-08-19T01:38:09;21.20;92.00
39675;DHT22;27790;50.840;4.386;2022-08-19T01:40:38;21.10;92.00
39675;DHT22;27790;50.840;4.386;2022-08-19T01:43:05;21.10;92.10
39675;DHT22;27790;50.840;4.386;2022-08-19T01:45:32;21.10;91.80
39675;DHT22;27790;50.840;4.386;2022-08-19T01:47:59;21.00;91.60
39675;DHT22;27790;50.840;4.386;2022-08-19T01:50:25;21.00;91.40
39675;DHT22;27790;50.840;4.386;2022-08-19T01:52:51;20.90;91.70
39675;DHT22;27790;50.840;4.386;2022-08-19T01:55:19;20.90;91.60
39675;DHT22;27790;50.840;4.386;2022-08-19T01:57:49;20.90;91.60
39675;DHT22;27790;50.840;4.386;2022-08-19T02:00:17;20.80;91.30
39675;DHT22;27790;50.840;4.386;2022-08-19T02:02:43;20.80;91.00
39675;DHT22;27790;50.840;4.386;2022-08-19T02:05:10;20.80;91.10
39675;DHT22;27790;50.840;4.386;2022-08-19T02:07:36;20.70;91.40
39675;DHT22;27790;50.840;4.386;2022-08-19T02:10:07;20.70;91.40
39675;DHT22;27790;50.840;4.386;2022-08-19T02:12:33;20.70;91.60
39675;DHT22;27790;50.840;4.386;2022-08-19T02:14:59;20.70;90.90
39675;DHT22;27790;50.840;4.386;2022-08-19T02:17:26;20.60;90.80
39675;DHT22;27790;50.840;4.386;2022-08-19T02:19:53;20.50;91.00
39675;DHT22;27790;50.840;4.386;2022-08-19T02:22:19;20.50;91.00
39675;DHT22;27790;50.840;4.386;2022-08-19T02:24:45;20.40;91.00
39675;DHT22;27790;50.840;4.386;2022-08-19T02:27:11;20.50;90.80
39675;DHT22;27790;50.840;4.386;2022-08-19T02:29:36;20.40;91.00
39675;DHT22;27790;50.840;4.386;2022-08-19T02:32:02;20.40;91.50
39675;DHT22;27790;50.840;4.386;2022-08-19T02:34:29;20.30;92.00
39675;DHT22;27790;50.840;4.386;2022-08-19T02:36:55;20.30;92.10
39675;DHT22;27790;50.840;4.386;2022-08-19T02:39:20;20.30;92.10
39675;DHT22;27790;50.840;4.386;2022-08-19T02:41:46;20.20;92.10
39675;DHT22;27790;50.840;4.386;2022-08-19T02:44:11;20.20;91.90
39675;DHT22;27790;50.840;4.386;2022-08-19T02:46:37;20.20;92.00
39675;DHT22;27790;50.840;4.386;2022-08-19T02:49:05;20.10;92.00
39675;DHT22;27790;50.840;4.386;2022-08-19T02:51:35;20.10;92.00
39675;DHT22;27790;50.840;4.386;2022-08-19T02:54:01;20.00;92.10
39675;DHT22;27790;50.840;4.386;2022-08-19T02:56:27;20.00;92.10
39675;DHT22;27790;50.840;4.386;2022-08-19T02:58:54;19.90;92.30
39675;DHT22;27790;50.840;4.386;2022-08-19T03:03:47;19.90;92.50
39675;DHT22;27790;50.840;4.386;2022-08-19T03:06:15;19.90;92.30
39675;DHT22;27790;50.840;4.386;2022-08-19T03:08:43;19.80;92.20
39675;DHT22;27790;50.840;4.386;2022-08-19T03:11:24;19.90;92.40
39675;DHT22;27790;50.840;4.386;2022-08-19T03:13:50;19.80;92.50
39675;DHT22;27790;50.840;4.386;2022-08-19T03:16:18;19.80;92.30
39675;DHT22;27790;50.840;4.386;2022-08-19T03:18:44;19.80;92.70
39675;DHT22;27790;50.840;4.386;2022-08-19T03:21:18;19.70;92.60
39675;DHT22;27790;50.840;4.386;2022-08-19T03:23:45;19.70;92.50
39675;DHT22;27790;50.840;4.386;2022-08-19T03:26:10;19.70;92.50
39675;DHT22;27790;50.840;4.386;2022-08-19T03:28:36;19.70;92.70
39675;DHT22;27790;50.840;4.386;2022-08-19T03:31:06;19.70;92.70
39675;DHT22;27790;50.840;4.386;2022-08-19T03:33:33;19.70;92.60
39675;DHT22;27790;50.840;4.386;2022-08-19T03:38:45;19.60;92.50
39675;DHT22;27790;50.840;4.386;2022-08-19T03:41:20;19.60;92.70
39675;DHT22;27790;50.840;4.386;2022-08-19T03:43:46;19.60;92.80
39675;DHT22;27790;50.840;4.386;2022-08-19T03:46:16;19.60;92.80
39675;DHT22;27790;50.840;4.386;2022-08-19T03:48:43;19.60;93.00
39675;DHT22;27790;50.840;4.386;2022-08-19T03:51:36;19.50;93.00
39675;DHT22;27790;50.840;4.386;2022-08-19T03:54:04;19.40;93.10
39675;DHT22;27790;50.840;4.386;2022-08-19T03:56:30;19.40;93.10
39675;DHT22;27790;50.840;4.386;2022-08-19T03:58:57;19.30;93.20
39675;DHT22;27790;50.840;4.386;2022-08-19T04:01:25;19.30;93.30
39675;DHT22;27790;50.840;4.386;2022-08-19T04:03:52;19.30;93.50
39675;DHT22;27790;50.840;4.386;2022-08-19T04:06:20;19.20;93.50
39675;DHT22;27790;50.840;4.386;2022-08-19T04:08:48;19.20;93.60
39675;DHT22;27790;50.840;4.386;2022-08-19T04:11:18;19.20;93.80
39675;DHT22;27790;50.840;4.386;2022-08-19T04:13:47;19.20;93.90
39675;DHT22;27790;50.840;4.386;2022-08-19T04:16:13;19.20;94.00
39675;DHT22;27790;50.840;4.386;2022-08-19T04:18:40;19.20;93.80
39675;DHT22;27790;50.840;4.386;2022-08-19T04:21:07;19.20;93.70
39675;DHT22;27790;50.840;4.386;2022-08-19T04:23:34;19.20;93.80
39675;DHT22;27790;50.840;4.386;2022-08-19T04:26:01;19.10;93.70
39675;DHT22;27790;50.840;4.386;2022-08-19T04:28:27;19.10;93.90
39675;DHT22;27790;50.840;4.386;2022-08-19T04:30:54;19.00;93.80
39675;DHT22;27790;50.840;4.386;2022-08-19T04:33:22;19.00;93.90
39675;DHT22;27790;50.840;4.386;2022-08-19T04:35:50;19.00;94.20
39675;DHT22;27790;50.840;4.386;2022-08-19T04:38:18;19.10;93.90
39675;DHT22;27790;50.840;4.386;2022-08-19T04:40:46;19.00;93.80
39675;DHT22;27790;50.840;4.386;2022-08-19T04:43:23;19.00;93.90
39675;DHT22;27790;50.840;4.386;2022-08-19T04:45:48;19.10;93.90
39675;DHT22;27790;50.840;4.386;2022-08-19T04:48:14;19.10;93.80
39675;DHT22;27790;50.840;4.386;2022-08-19T04:50:42;19.20;93.60
39675;DHT22;27790;50.840;4.386;2022-08-19T04:53:08;19.30;93.40
39675;DHT22;27790;50.840;4.386;2022-08-19T04:55:33;19.40;93.20
39675;DHT22;27790;50.840;4.386;2022-08-19T04:58:01;19.40;93.00
39675;DHT22;27790;50.840;4.386;2022-08-19T05:00:27;19.40;93.20
39675;DHT22;27790;50.840;4.386;2022-08-19T05:02:53;19.40;93.30
39675;DHT22;27790;50.840;4.386;2022-08-19T05:05:19;19.30;93.30
39675;DHT22;27790;50.840;4.386;2022-08-19T05:07:45;19.30;93.30
39675;DHT22;27790;50.840;4.386;2022-08-19T05:10:11;19.30;93.30
39675;DHT22;27790;50.840;4.386;2022-08-19T05:12:37;19.30;93.30
39675;DHT22;27790;50.840;4.386;2022-08-19T05:15:04;19.30;93.20
39675;DHT22;27790;50.840;4.386;2022-08-19T05:17:31;19.30;93.30
39675;DHT22;27790;50.840;4.386;2022-08-19T05:19:57;19.40;93.30
39675;DHT22;27790;50.840;4.386;2022-08-19T05:22:34;19.40;93.30
39675;DHT22;27790;50.840;4.386;2022-08-19T05:25:06;19.50;93.30
39675;DHT22;27790;50.840;4.386;2022-08-19T05:27:32;19.50;93.10
39675;DHT22;27790;50.840;4.386;2022-08-19T05:29:58;19.60;93.00
39675;DHT22;27790;50.840;4.386;2022-08-19T05:32:24;19.60;93.00
39675;DHT22;27790;50.840;4.386;2022-08-19T05:34:50;19.70;92.60
39675;DHT22;27790;50.840;4.386;2022-08-19T05:37:15;19.80;92.70
39675;DHT22;27790;50.840;4.386;2022-08-19T05:39:42;19.80;92.70
39675;DHT22;27790;50.840;4.386;2022-08-19T05:42:10;19.80;92.60
39675;DHT22;27790;50.840;4.386;2022-08-19T05:44:39;19.90;92.50
39675;DHT22;27790;50.840;4.386;2022-08-19T05:47:06;20.00;92.40
39675;DHT22;27790;50.840;4.386;2022-08-19T05:49:34;20.30;92.00
39675;DHT22;27790;50.840;4.386;2022-08-19T05:52:03;20.50;91.40
39675;DHT22;27790;50.840;4.386;2022-08-19T05:54:29;20.60;91.10
39675;DHT22;27790;50.840;4.386;2022-08-19T05:56:55;20.80;91.10
39675;DHT22;27790;50.840;4.386;2022-08-19T05:59:21;20.80;90.70
39675;DHT22;27790;50.840;4.386;2022-08-19T06:01:49;20.90;90.80
39675;DHT22;27790;50.840;4.386;2022-08-19T06:04:20;21.00;90.60
39675;DHT22;27790;50.840;4.386;2022-08-19T06:06:47;21.00;90.50
39675;DHT22;27790;50.840;4.386;2022-08-19T06:09:13;21.10;90.30
39675;DHT22;27790;50.840;4.386;2022-08-19T06:11:43;21.10;90.20
39675;DHT22;27790;50.840;4.386;2022-08-19T06:14:14;21.20;90.20
39675;DHT22;27790;50.840;4.386;2022-08-19T06:16:41;21.20;90.10
39675;DHT22;27790;50.840;4.386;2022-08-19T06:19:11;21.40;90.00
39675;DHT22;27790;50.840;4.386;2022-08-19T06:21:39;21.50;89.70
39675;DHT22;27790;50.840;4.386;2022-08-19T06:24:07;21.50;89.60
39675;DHT22;27790;50.840;4.386;2022-08-19T06:26:36;21.50;89.70
39675;DHT22;27790;50.840;4.386;2022-08-19T06:29:03;21.50;90.00
39675;DHT22;27790;50.840;4.386;2022-08-19T06:31:32;21.50;90.00
39675;DHT22;27790;50.840;4.386;2022-08-19T06:34:00;21.50;89.80
39675;DHT22;27790;50.840;4.386;2022-08-19T06:36:30;21.60;90.00
39675;DHT22;27790;50.840;4.386;2022-08-19T06:39:03;21.60;89.90
39675;DHT22;27790;50.840;4.386;2022-08-19T06:41:30;21.80;90.00
39675;DHT22;27790;50.840;4.386;2022-08-19T06:43:56;22.00;88.90
39675;DHT22;27790;50.840;4.386;2022-08-19T06:46:24;22.20;88.70
39675;DHT22;27790;50.840;4.386;2022-08-19T06:48:49;22.30;88.40
39675;DHT22;27790;50.840;4.386;2022-08-19T06:51:17;22.40;88.70
39675;DHT22;27790;50.840;4.386;2022-08-19T06:53:47;22.40;88.50
39675;DHT22;27790;50.840;4.386;2022-08-19T06:56:18;22.50;87.80
39675;DHT22;27790;50.840;4.386;2022-08-19T06:58:44;22.60;87.70
39675;DHT22;27790;50.840;4.386;2022-08-19T07:01:10;22.70;87.30
39675;DHT22;27790;50.840;4.386;2022-08-19T07:03:36;22.70;87.20
39675;DHT22;27790;50.840;4.386;2022-08-19T07:06:04;22.60;87.60
39675;DHT22;27790;50.840;4.386;2022-08-19T07:08:30;22.50;87.90
39675;DHT22;27790;50.840;4.386;2022-08-19T07:10:56;22.40;88.50
39675;DHT22;27790;50.840;4.386;2022-08-19T07:13:22;22.50;88.40
39675;DHT22;27790;50.840;4.386;2022-08-19T07:15:49;22.60;88.30
39675;DHT22;27790;50.840;4.386;2022-08-19T07:18:18;22.50;88.60
39675;DHT22;27790;50.840;4.386;2022-08-19T07:20:45;22.50;89.20
39675;DHT22;27790;50.840;4.386;2022-08-19T07:23:11;22.50;89.20
39675;DHT22;27790;50.840;4.386;2022-08-19T07:25:38;22.90;88.80
39675;DHT22;27790;50.840;4.386;2022-08-19T07:28:04;23.30;87.30
39675;DHT22;27790;50.840;4.386;2022-08-19T07:30:30;23.10;87.60
39675;DHT22;27790;50.840;4.386;2022-08-19T07:32:56;23.00;87.70
39675;DHT22;27790;50.840;4.386;2022-08-19T07:35:22;22.90;88.10
39675;DHT22;27790;50.840;4.386;2022-08-19T07:37:48;22.60;88.70
39675;DHT22;27790;50.840;4.386;2022-08-19T07:40:14;22.60;90.00
39675;DHT22;27790;50.840;4.386;2022-08-19T07:42:40;22.70;89.40
39675;DHT22;27790;50.840;4.386;2022-08-19T07:45:07;22.70;89.60
39675;DHT22;27790;50.840;4.386;2022-08-19T07:47:33;22.80;89.30
39675;DHT22;27790;50.840;4.386;2022-08-19T07:49:59;23.00;88.70
39675;DHT22;27790;50.840;4.386;2022-08-19T07:52:24;23.20;87.80
39675;DHT22;27790;50.840;4.386;2022-08-19T07:54:50;23.40;87.40
39675;DHT22;27790;50.840;4.386;2022-08-19T07:57:16;23.60;86.80
39675;DHT22;27790;50.840;4.386;2022-08-19T07:59:42;23.80;85.80
39675;DHT22;27790;50.840;4.386;2022-08-19T08:02:08;23.90;85.80
39675;DHT22;27790;50.840;4.386;2022-08-19T08:04:34;23.90;85.40
39675;DHT22;27790;50.840;4.386;2022-08-19T08:07:10;23.80;86.10
39675;DHT22;27790;50.840;4.386;2022-08-19T08:09:46;23.60;86.40
39675;DHT22;27790;50.840;4.386;2022-08-19T08:12:19;23.60;86.90
39675;DHT22;27790;50.840;4.386;2022-08-19T08:14:50;23.60;87.60
39675;DHT22;27790;50.840;4.386;2022-08-19T08:17:18;23.70;86.90
39675;DHT22;27790;50.840;4.386;2022-08-19T08:19:45;23.80;87.20
39675;DHT22;27790;50.840;4.386;2022-08-19T08:22:14;24.00;86.00
39675;DHT22;27790;50.840;4.386;2022-08-19T08:24:51;24.20;85.00
39675;DHT22;27790;50.840;4.386;2022-08-19T08:27:17;24.30;85.10
39675;DHT22;27790;50.840;4.386;2022-08-19T08:29:43;24.20;85.30
39675;DHT22;27790;50.840;4.386;2022-08-19T08:32:09;24.30;85.00
39675;DHT22;27790;50.840;4.386;2022-08-19T08:34:35;24.20;85.00
39675;DHT22;27790;50.840;4.386;2022-08-19T08:37:02;24.20;85.20
39675;DHT22;27790;50.840;4.386;2022-08-19T08:39:28;24.10;85.40
39675;DHT22;27790;50.840;4.386;2022-08-19T08:44:31;23.90;86.10
39675;DHT22;27790;50.840;4.386;2022-08-19T08:47:09;23.90;86.30
39675;DHT22;27790;50.840;4.386;2022-08-19T08:49:41;23.90;86.30
39675;DHT22;27790;50.840;4.386;2022-08-19T08:52:11;23.80;86.60
39675;DHT22;27790;50.840;4.386;2022-08-19T08:54:41;23.90;86.70
39675;DHT22;27790;50.840;4.386;2022-08-19T08:57:37;23.90;87.10
39675;DHT22;27790;50.840;4.386;2022-08-19T09:00:08;23.90;87.10
39675;DHT22;27790;50.840;4.386;2022-08-19T09:02:36;24.00;86.70
39675;DHT22;27790;50.840;4.386;2022-08-19T09:05:01;23.90;86.80
39675;DHT22;27790;50.840;4.386;2022-08-19T09:15:13;23.60;88.50
39675;DHT22;27790;50.840;4.386;2022-08-19T09:17:39;23.60;88.80
39675;DHT22;27790;50.840;4.386;2022-08-19T09:20:18;23.60;88.50
39675;DHT22;27790;50.840;4.386;2022-08-19T09:22:44;23.70;88.40
39675;DHT22;27790;50.840;4.386;2022-08-19T09:25:13;23.90;88.00
39675;DHT22;27790;50.840;4.386;2022-08-19T09:27:41;24.00;87.60
39675;DHT22;27790;50.840;4.386;2022-08-19T09:30:11;24.10;87.30
39675;DHT22;27790;50.840;4.386;2022-08-19T09:32:37;24.10;87.40
39675;DHT22;27790;50.840;4.386;2022-08-19T09:35:08;24.10;87.20
39675;DHT22;27790;50.840;4.386;2022-08-19T09:37:34;24.00;87.50
39675;DHT22;27790;50.840;4.386;2022-08-19T09:39:59;24.10;87.70
39675;DHT22;27790;50.840;4.386;2022-08-19T09:42:25;24.10;87.30
39675;DHT22;27790;50.840;4.386;2022-08-19T09:44:50;24.10;87.50
39675;DHT22;27790;50.840;4.386;2022-08-19T09:47:16;24.10;87.00
39675;DHT22;27790;50.840;4.386;2022-08-19T09:49:42;24.10;87.20
39675;DHT22;27790;50.840;4.386;2022-08-19T09:52:09;24.20;86.90
39675;DHT22;27790;50.840;4.386;2022-08-19T09:54:35;24.10;86.90
39675;DHT22;27790;50.840;4.386;2022-08-19T09:57:01;24.20;87.00
39675;DHT22;27790;50.840;4.386;2022-08-19T09:59:27;24.20;87.10
39675;DHT22;27790;50.840;4.386;2022-08-19T10:01:53;24.30;86.50
39675;DHT22;27790;50.840;4.386;2022-08-19T10:04:19;24.30;86.70
39675;DHT22;27790;50.840;4.386;2022-08-19T10:06:46;24.40;86.60
39675;DHT22;27790;50.840;4.386;2022-08-19T10:09:14;24.40;86.50
39675;DHT22;27790;50.840;4.386;2022-08-19T10:11:41;24.40;86.60
39675;DHT22;27790;50.840;4.386;2022-08-19T10:14:07;24.40;86.80
39675;DHT22;27790;50.840;4.386;2022-08-19T10:16:34;24.40;86.20
39675;DHT22;27790;50.840;4.386;2022-08-19T10:19:01;24.40;86.90
39675;DHT22;27790;50.840;4.386;2022-08-19T10:21:31;24.50;86.20
39675;DHT22;27790;50.840;4.386;2022-08-19T10:23:59;24.60;86.30
39675;DHT22;27790;50.840;4.386;2022-08-19T10:26:31;24.70;85.80
39675;DHT22;27790;50.840;4.386;2022-08-19T10:28:57;24.80;85.80
39675;DHT22;27790;50.840;4.386;2022-08-19T10:31:31;24.90;85.20
39675;DHT22;27790;50.840;4.386;2022-08-19T10:33:58;24.90;85.10
39675;DHT22;27790;50.840;4.386;2022-08-19T10:36:30;25.00;84.80
39675;DHT22;27790;50.840;4.386;2022-08-19T10:38:58;24.90;84.80
39675;DHT22;27790;50.840;4.386;2022-08-19T10:41:27;25.00;84.70
39675;DHT22;27790;50.840;4.386;2022-08-19T10:43:58;24.90;85.10
39675;DHT22;27790;50.840;4.386;2022-08-19T10:46:27;24.90;85.50
39675;DHT22;27790;50.840;4.386;2022-08-19T10:48:53;24.80;85.50
39675;DHT22;27790;50.840;4.386;2022-08-19T10:51:20;24.90;85.80
39675;DHT22;27790;50.840;4.386;2022-08-19T10:53:56;24.90;85.60
39675;DHT22;27790;50.840;4.386;2022-08-19T10:56:23;24.90;85.90
39675;DHT22;27790;50.840;4.386;2022-08-19T10:58:59;25.00;85.70
39675;DHT22;27790;50.840;4.386;2022-08-19T11:01:26;25.00;85.40
39675;DHT22;27790;50.840;4.386;2022-08-19T11:03:52;25.00;85.50
39675;DHT22;27790;50.840;4.386;2022-08-19T11:06:19;24.90;85.50
39675;DHT22;27790;50.840;4.386;2022-08-19T11:08:45;24.80;86.20
39675;DHT22;27790;50.840;4.386;2022-08-19T11:11:11;24.60;86.70
39675;DHT22;27790;50.840;4.386;2022-08-19T11:13:39;24.40;87.20
39675;DHT22;27790;50.840;4.386;2022-08-19T11:16:15;24.40;87.80
39675;DHT22;27790;50.840;4.386;2022-08-19T11:18:44;24.50;87.60
39675;DHT22;27790;50.840;4.386;2022-08-19T11:21:14;24.80;86.70
39675;DHT22;27790;50.840;4.386;2022-08-19T11:23:42;25.00;85.80
39675;DHT22;27790;50.840;4.386;2022-08-19T11:26:08;25.10;85.30
39675;DHT22;27790;50.840;4.386;2022-08-19T11:28:35;25.00;85.00
39675;DHT22;27790;50.840;4.386;2022-08-19T11:31:00;24.90;85.20
39675;DHT22;27790;50.840;4.386;2022-08-19T11:33:29;24.80;85.70
39675;DHT22;27790;50.840;4.386;2022-08-19T11:35:57;24.80;85.80
39675;DHT22;27790;50.840;4.386;2022-08-19T11:38:24;24.80;85.90
39675;DHT22;27790;50.840;4.386;2022-08-19T11:40:57;24.90;85.50
39675;DHT22;27790;50.840;4.386;2022-08-19T11:43:23;25.00;85.40
39675;DHT22;27790;50.840;4.386;2022-08-19T11:45:49;25.00;85.30
39675;DHT22;27790;50.840;4.386;2022-08-19T11:48:15;25.00;85.20
39675;DHT22;27790;50.840;4.386;2022-08-19T11:50:40;25.00;85.00
39675;DHT22;27790;50.840;4.386;2022-08-19T11:53:09;25.00;85.40
39675;DHT22;27790;50.840;4.386;2022-08-19T11:55:37;25.00;85.00
39675;DHT22;27790;50.840;4.386;2022-08-19T11:58:04;25.00;85.20
39675;DHT22;27790;50.840;4.386;2022-08-19T12:00:32;25.00;85.20
39675;DHT22;27790;50.840;4.386;2022-08-19T12:03:00;25.20;84.70
39675;DHT22;27790;50.840;4.386;2022-08-19T12:05:26;25.50;83.80
39675;DHT22;27790;50.840;4.386;2022-08-19T12:07:52;25.90;82.70
39675;DHT22;27790;50.840;4.386;2022-08-19T12:10:20;26.10;82.90
39675;DHT22;27790;50.840;4.386;2022-08-19T12:12:45;26.20;80.50
39675;DHT22;27790;50.840;4.386;2022-08-19T12:15:12;26.30;80.80
39675;DHT22;27790;50.840;4.386;2022-08-19T12:17:40;26.50;80.40
39675;DHT22;27790;50.840;4.386;2022-08-19T12:20:08;26.80;79.80
39675;DHT22;27790;50.840;4.386;2022-08-19T12:22:35;26.80;79.40
39675;DHT22;27790;50.840;4.386;2022-08-19T12:25:01;27.00;78.60
39675;DHT22;27790;50.840;4.386;2022-08-19T12:27:26;27.10;78.40
39675;DHT22;27790;50.840;4.386;2022-08-19T12:29:52;27.10;78.50
39675;DHT22;27790;50.840;4.386;2022-08-19T12:32:18;26.90;79.00
39675;DHT22;27790;50.840;4.386;2022-08-19T12:34:43;26.90;79.10
39675;DHT22;27790;50.840;4.386;2022-08-19T12:37:09;26.80;78.60
39675;DHT22;27790;50.840;4.386;2022-08-19T12:39:39;26.70;78.80
39675;DHT22;27790;50.840;4.386;2022-08-19T12:42:05;26.60;78.70
39675;DHT22;27790;50.840;4.386;2022-08-19T12:44:31;26.50;79.10
39675;DHT22;27790;50.840;4.386;2022-08-19T12:46:58;26.50;79.40
39675;DHT22;27790;50.840;4.386;2022-08-19T12:49:23;26.60;79.30
39675;DHT22;27790;50.840;4.386;2022-08-19T12:51:50;26.70;78.70
39675;DHT22;27790;50.840;4.386;2022-08-19T12:54:15;26.80;78.60
39675;DHT22;27790;50.840;4.386;2022-08-19T12:56:41;26.90;78.10
39675;DHT22;27790;50.840;4.386;2022-08-19T12:59:09;27.00;77.10
39675;DHT22;27790;50.840;4.386;2022-08-19T13:01:36;27.00;77.80
39675;DHT22;27790;50.840;4.386;2022-08-19T13:04:02;27.10;77.50
39675;DHT22;27790;50.840;4.386;2022-08-19T13:06:28;27.20;77.00
39675;DHT22;27790;50.840;4.386;2022-08-19T13:08:55;27.20;76.80
39675;DHT22;27790;50.840;4.386;2022-08-19T13:11:22;27.30;76.70
39675;DHT22;27790;50.840;4.386;2022-08-19T13:13:50;27.20;76.70
39675;DHT22;27790;50.840;4.386;2022-08-19T13:16:17;27.10;76.80
39675;DHT22;27790;50.840;4.386;2022-08-19T13:18:45;27.10;76.60
39675;DHT22;27790;50.840;4.386;2022-08-19T13:21:17;27.10;77.20
39675;DHT22;27790;50.840;4.386;2022-08-19T13:23:45;27.00;77.40
39675;DHT22;27790;50.840;4.386;2022-08-19T13:26:12;26.90;77.40
39675;DHT22;27790;50.840;4.386;2022-08-19T13:28:38;26.70;77.50
39675;DHT22;27790;50.840;4.386;2022-08-19T13:31:18;26.60;78.20
39675;DHT22;27790;50.840;4.386;2022-08-19T13:33:54;26.80;77.70
39675;DHT22;27790;50.840;4.386;2022-08-19T13:36:20;26.70;77.70
39675;DHT22;27790;50.840;4.386;2022-08-19T13:38:46;26.70;77.90
39675;DHT22;27790;50.840;4.386;2022-08-19T13:41:12;27.00;77.10
39675;DHT22;27790;50.840;4.386;2022-08-19T13:43:37;27.00;77.00
39675;DHT22;27790;50.840;4.386;2022-08-19T13:46:09;26.80;77.50
39675;DHT22;27790;50.840;4.386;2022-08-19T13:48:35;26.60;78.40
39675;DHT22;27790;50.840;4.386;2022-08-19T13:51:01;26.50;78.00
39675;DHT22;27790;50.840;4.386;2022-08-19T13:53:29;26.50;77.90
39675;DHT22;27790;50.840;4.386;2022-08-19T13:55:56;26.50;78.50
39675;DHT22;27790;50.840;4.386;2022-08-19T13:58:22;26.60;77.90
39675;DHT22;27790;50.840;4.386;2022-08-19T14:00:48;26.70;77.30
39675;DHT22;27790;50.840;4.386;2022-08-19T14:03:14;26.60;78.60
39675;DHT22;27790;50.840;4.386;2022-08-19T14:05:40;26.50;78.30
39675;DHT22;27790;50.840;4.386;2022-08-19T14:08:06;26.40;78.20
39675;DHT22;27790;50.840;4.386;2022-08-19T14:10:32;26.20;79.50
39675;DHT22;27790;50.840;4.386;2022-08-19T14:13:00;26.10;79.90
39675;DHT22;27790;50.840;4.386;2022-08-19T14:15:27;26.00;81.10
39675;DHT22;27790;50.840;4.386;2022-08-19T14:17:53;25.80;83.30
39675;DHT22;27790;50.840;4.386;2022-08-19T14:20:19;25.60;85.30
39675;DHT22;27790;50.840;4.386;2022-08-19T14:22:46;25.20;86.50
39675;DHT22;27790;50.840;4.386;2022-08-19T14:25:16;25.10;87.70
39675;DHT22;27790;50.840;4.386;2022-08-19T14:27:42;25.10;88.60
39675;DHT22;27790;50.840;4.386;2022-08-19T14:30:13;25.20;88.80
39675;DHT22;27790;50.840;4.386;2022-08-19T14:32:39;25.30;87.40
39675;DHT22;27790;50.840;4.386;2022-08-19T14:35:06;25.40;87.30
39675;DHT22;27790;50.840;4.386;2022-08-19T14:37:34;25.30;87.30
39675;DHT22;27790;50.840;4.386;2022-08-19T14:40:00;25.30;87.20
39675;DHT22;27790;50.840;4.386;2022-08-19T14:42:26;25.50;86.20
39675;DHT22;27790;50.840;4.386;2022-08-19T14:44:51;25.40;86.80
39675;DHT22;27790;50.840;4.386;2022-08-19T14:47:17;25.30;86.90
39675;DHT22;27790;50.840;4.386;2022-08-19T14:49:42;25.30;87.00
39675;DHT22;27790;50.840;4.386;2022-08-19T14:52:09;25.10;87.00
39675;DHT22;27790;50.840;4.386;2022-08-19T14:54:35;25.00;87.50
39675;DHT22;27790;50.840;4.386;2022-08-19T14:57:00;24.90;87.90
39675;DHT22;27790;50.840;4.386;2022-08-19T14:59:26;25.00;87.20
39675;DHT22;27790;50.840;4.386;2022-08-19T15:01:51;25.10;87.10
39675;DHT22;27790;50.840;4.386;2022-08-19T15:04:17;25.20;87.40
39675;DHT22;27790;50.840;4.386;2022-08-19T15:06:42;25.40;87.80
39675;DHT22;27790;50.840;4.386;2022-08-19T15:09:09;25.50;87.20
39675;DHT22;27790;50.840;4.386;2022-08-19T15:11:35;25.70;87.10
39675;DHT22;27790;50.840;4.386;2022-08-19T15:14:02;25.80;86.70
39675;DHT22;27790;50.840;4.386;2022-08-19T15:16:30;25.80;86.10
39675;DHT22;27790;50.840;4.386;2022-08-19T15:18:57;25.60;86.80
39675;DHT22;27790;50.840;4.386;2022-08-19T15:21:25;25.60;87.40
39675;DHT22;27790;50.840;4.386;2022-08-19T15:23:51;25.60;86.90
39675;DHT22;27790;50.840;4.386;2022-08-19T15:26:18;25.60;86.80
39675;DHT22;27790;50.840;4.386;2022-08-19T15:28:45;25.60;86.50
39675;DHT22;27790;50.840;4.386;2022-08-19T15:31:12;25.60;86.00
39675;DHT22;27790;50.840;4.386;2022-08-19T15:33:39;25.70;85.30
39675;DHT22;27790;50.840;4.386;2022-08-19T15:36:08;25.60;84.90
39675;DHT22;27790;50.840;4.386;2022-08-19T15:38:34;25.70;85.10
39675;DHT22;27790;50.840;4.386;2022-08-19T15:41:02;25.70;85.10
39675;DHT22;27790;50.840;4.386;2022-08-19T15:43:41;25.80;85.40
39675;DHT22;27790;50.840;4.386;2022-08-19T15:46:07;25.80;85.60
39675;DHT22;27790;50.840;4.386;2022-08-19T15:48:32;25.80;85.80